Time;durP1;ratioP1;P1;durP2;ratioP2;P2;SDS_P1;SDS_P2;PMS_P1;PMS_P2;Temp;Humidity;BMP_temperature;BMP_pressure;BME280_temperature;BME280_humidity;BME280_pressure;Samples;Min_cycle;Max_cycle;Signal;HPM_P1;HPM_P2
2023/12/02 00:00:14;;;;;;;23.53;12.93;;;-0.30;99.90;-1.40;99320;;;;549111;254;24233;-87
2023/12/02 00:02:39;;;;;;;22.03;13.03;;;-0.30;99.90;-1.40;99316;;;;562476;251;24140;-87
2023/12/02 00:05:07;;;;;;;24.77;13.17;;;-0.30;99.90;-1.40;99320;;;;552751;256;24135;-88
2023/12/02 00:07:35;;;;;;;23.27;12.60;;;-0.30;99.90;-1.40;99310;;;;552540;254;24123;-86
2023/12/02 00:10:07;;;;;;;21.53;12.87;;;-0.30;99.90;-1.40;99314;;;;552661;256;24144;-88
2023/12/02 00:12:32;;;;;;;23.97;14.00;;;-0.40;99.90;-1.50;99314;;;;555863;258;24145;-88
2023/12/02 00:15:01;;;;;;;22.00;12.90;;;-0.50;99.90;-1.50;99310;;;;573324;247;24070;-86
2023/12/02 00:17:33;;;;;;;28.47;14.30;;;-0.40;99.90;-1.60;99307;;;;552211;256;24132;-87
2023/12/02 00:19:59;;;;;;;24.50;12.43;;;-0.50;99.90;-1.70;99313;;;;552160;256;24184;-88
2023/12/02 00:22:27;;;;;;;32.33;14.10;;;-0.50;99.90;-1.70;99306;;;;552277;256;24148;-88
2023/12/02 00:24:58;;;;;;;26.43;14.37;;;-0.60;99.90;-1.80;99305;;;;552355;256;24156;-87
2023/12/02 00:27:23;;;;;;;18.50;12.37;;;-0.70;99.90;-1.80;99311;;;;562468;249;24106;-88
2023/12/02 00:29:58;;;;;;;24.20;13.40;;;-0.70;99.90;-1.90;99309;;;;552592;256;24124;-89
2023/12/02 00:32:26;;;;;;;26.30;14.20;;;-0.80;99.90;-1.90;99300;;;;552740;256;24144;-87
2023/12/02 00:34:53;;;;;;;23.77;13.80;;;-0.80;99.90;-1.90;99315;;;;561537;252;24146;-88
2023/12/02 00:37:21;;;;;;;23.73;11.67;;;-0.70;99.90;-1.90;99305;;;;551724;256;24135;-89
2023/12/02 00:39:50;;;;;;;21.63;11.93;;;-0.80;99.90;-1.90;99306;;;;551535;254;24114;-88
2023/12/02 00:42:18;;;;;;;19.83;11.17;;;-0.70;99.90;-1.90;99316;;;;551565;256;24185;-87
2023/12/02 00:44:46;;;;;;;20.57;11.00;;;-0.70;99.90;-1.80;99318;;;;551765;256;24122;-87
2023/12/02 00:47:28;;;;;;;22.03;10.97;;;-0.70;99.90;-1.80;99313;;;;551736;256;24169;-87
2023/12/02 00:49:45;;;;;;;16.47;9.73;;;-0.60;99.90;-1.80;99310;;;;550816;256;24129;-86
2023/12/02 00:52:21;;;;;;;19.67;9.67;;;-0.60;99.90;-1.70;99323;;;;561370;252;24176;-88
2023/12/02 00:54:46;;;;;;;18.20;9.73;;;-0.60;99.90;-1.70;99317;;;;551719;256;24139;-90
2023/12/02 00:57:14;;;;;;;17.03;10.03;;;-0.50;99.90;-1.60;99326;;;;552227;256;24141;-88
2023/12/02 00:59:42;;;;;;;17.60;10.27;;;-0.50;99.90;-1.60;99325;;;;552203;256;24136;-87
2023/12/02 01:02:13;;;;;;;17.77;10.37;;;-0.40;99.90;-1.50;99326;;;;548543;256;24271;-87
2023/12/02 01:04:38;;;;;;;15.97;9.80;;;-0.40;99.90;-1.50;99318;;;;552272;256;24169;-89
2023/12/02 01:07:06;;;;;;;17.13;9.23;;;-0.40;99.90;-1.50;99329;;;;551419;256;24119;-86
2023/12/02 01:09:34;;;;;;;20.80;9.63;;;-0.30;99.90;-1.40;99323;;;;551827;256;24123;-89
2023/12/02 01:12:02;;;;;;;19.30;11.20;;;-0.20;99.90;-1.40;99324;;;;552740;255;24154;-87
2023/12/02 01:14:31;;;;;;;19.43;10.97;;;-0.30;99.90;-1.40;99325;;;;553108;253;24185;-87
2023/12/02 01:16:59;;;;;;;21.00;13.68;;;-0.20;99.90;-1.50;99335;;;;544416;256;35513;-87
2023/12/02 01:19:26;;;;;;;11.40;5.70;;;-0.20;99.90;-1.50;99330;;;;552798;256;24143;-87
2023/12/02 01:21:55;;;;;;;24.90;11.83;;;-0.30;99.90;-1.50;99326;;;;555604;257;24112;-88
2023/12/02 01:24:23;;;;;;;21.00;12.70;;;-0.40;99.90;-1.50;99332;;;;558116;251;24137;-88
2023/12/02 01:26:51;;;;;;;25.70;12.70;;;-0.40;99.90;-1.60;99326;;;;552094;256;24105;-86
2023/12/02 01:29:19;;;;;;;22.13;12.87;;;-0.40;99.90;-1.60;99325;;;;548550;256;24185;-89
2023/12/02 01:31:47;;;;;;;23.00;12.80;;;-0.40;99.90;-1.60;99316;;;;552068;256;24138;-89
2023/12/02 01:34:15;;;;;;;25.60;13.53;;;-0.40;99.90;-1.60;99319;;;;552092;256;24163;-85
2023/12/02 01:36:43;;;;;;;31.83;17.00;;;-0.50;99.90;-1.60;99311;;;;551852;256;24155;-88
2023/12/02 01:39:12;;;;;;;26.43;15.43;;;-0.50;99.90;-1.60;99318;;;;551849;255;24150;-88
2023/12/02 01:41:43;;;;;;;26.37;12.60;;;-0.20;99.90;-1.60;99326;;;;560133;256;24156;-88
2023/12/02 01:44:09;;;;;;;24.90;13.20;;;-0.50;99.90;-1.60;99328;;;;551561;256;25178;-88
2023/12/02 01:46:41;;;;;;;21.27;11.93;;;-0.50;99.90;-1.50;99333;;;;551740;256;24142;-87
2023/12/02 01:49:06;;;;;;;22.27;12.13;;;-0.40;99.90;-1.50;99334;;;;547356;256;24235;-87
2023/12/02 01:51:34;;;;;;;25.20;12.83;;;-0.30;99.90;-1.40;99339;;;;551610;254;24139;-88
2023/12/02 01:54:06;;;;;;;28.33;12.83;;;-0.20;99.90;-1.30;99334;;;;551729;255;24200;-89
2023/12/02 01:56:31;;;;;;;26.57;13.00;;;-0.20;99.90;-1.30;99342;;;;550387;255;24170;-87
2023/12/02 01:58:59;;;;;;;19.67;11.70;;;-0.10;99.90;-1.30;99330;;;;551907;256;24157;-86
2023/12/02 02:01:27;;;;;;;18.60;10.87;;;-0.10;99.90;-1.30;99327;;;;551940;256;24117;-86
2023/12/02 02:03:58;;;;;;;15.97;9.70;;;-0.10;99.90;-1.30;99332;;;;552207;256;24161;-87
2023/12/02 02:06:26;;;;;;;24.08;13.70;;;-0.20;99.90;-1.40;99330;;;;547306;256;35493;-89
2023/12/02 02:08:55;;;;;;;15.23;6.00;;;-0.40;99.90;-1.60;99318;;;;551808;256;24168;-88
2023/12/02 02:11:24;;;;;;;19.60;10.20;;;-0.50;99.90;-1.70;99316;;;;561290;252;24145;-87
2023/12/02 02:13:52;;;;;;;24.37;11.53;;;-0.60;99.90;-1.80;99317;;;;551578;256;24143;-87
2023/12/02 02:16:20;;;;;;;17.53;9.83;;;-0.70;99.90;-1.90;99318;;;;551685;256;24157;-87
2023/12/02 02:18:49;;;;;;;18.00;9.43;;;-0.80;99.90;-2.00;99320;;;;559953;256;24133;-86
2023/12/02 02:21:17;;;;;;;17.93;9.83;;;-0.90;99.90;-2.00;99315;;;;546661;258;24127;-89
2023/12/02 02:23:50;;;;;;;20.97;9.50;;;-0.90;99.90;-2.00;99307;;;;581527;245;24099;-87
2023/12/02 02:26:16;;;;;;;21.67;10.03;;;-1.00;99.90;-2.10;99306;;;;552827;255;24190;-86
2023/12/02 02:28:45;;;;;;;26.90;9.27;;;-1.00;99.90;-2.10;99309;;;;552433;256;24128;-88
2023/12/02 02:31:14;;;;;;;23.17;11.47;;;;;-2.20;99318;;;;553026;256;24143;-88
2023/12/02 02:33:42;;;;;;;24.67;13.62;;;-1.00;99.90;-2.20;99296;;;;548534;256;35549;-88
2023/12/02 02:36:14;;;;;;;17.43;9.37;;;-1.20;99.90;-2.30;99304;;;;553147;256;24137;-90
2023/12/02 02:38:38;;;;;;;20.90;9.20;;;-1.20;99.90;-2.30;99295;;;;552375;256;24126;-89
2023/12/02 02:41:10;;;;;;;19.83;10.30;;;-1.20;99.90;-2.40;99305;;;;562752;251;24084;-90
2023/12/02 02:43:34;;;;;;;17.67;9.07;;;-1.30;99.90;-2.40;99297;;;;552620;256;24141;-88
2023/12/02 02:46:10;;;;;;;19.60;9.93;;;-1.30;99.90;-2.50;99314;;;;570865;251;24170;-87
2023/12/02 02:48:35;;;;;;;20.87;10.47;;;-1.30;99.90;-2.50;99307;;;;561780;250;24098;-90
2023/12/02 02:51:03;;;;;;;23.20;11.73;;;-1.40;99.90;-2.60;99316;;;;552095;256;24116;-90
2023/12/02 02:53:32;;;;;;;17.87;9.37;;;-1.30;99.90;-2.60;99293;;;;552277;254;24147;-88
2023/12/02 02:56:00;;;;;;;20.57;10.17;;;-1.50;99.90;-2.60;99289;;;;549372;256;24116;-88
2023/12/02 02:58:34;;;;;;;15.67;9.50;;;-1.50;99.90;-2.60;99297;;;;547508;253;24140;-89
2023/12/02 03:01:00;;;;;;;22.23;10.17;;;-1.50;99.90;-2.60;99308;;;;552375;256;24118;-89
2023/12/02 03:03:28;;;;;;;14.13;8.57;;;-1.50;99.90;-2.60;99307;;;;548333;258;24125;-89
2023/12/02 03:05:56;;;;;;;17.77;8.70;;;-1.50;99.90;-2.60;99298;;;;573331;247;26267;-86
2023/12/02 03:08:24;;;;;;;17.73;8.40;;;-1.40;99.90;-2.60;99304;;;;562530;252;24113;-88
2023/12/02 03:10:52;;;;;;;17.90;9.27;;;-1.40;99.90;-2.50;99305;;;;552282;256;24174;-89
2023/12/02 03:13:21;;;;;;;15.90;7.83;;;-1.40;99.90;-2.50;99295;;;;548281;256;24136;-87
2023/12/02 03:15:51;;;;;;;17.87;8.47;;;-1.40;99.90;-2.50;99308;;;;548193;256;24162;-87
2023/12/02 03:18:19;;;;;;;15.67;7.63;;;-1.50;99.90;-2.50;99309;;;;555611;256;24130;-87
2023/12/02 03:20:51;;;;;;;20.37;9.07;;;-1.40;99.90;-2.50;99295;;;;562035;252;24141;-89
2023/12/02 03:23:18;;;;;;;23.47;9.83;;;-1.10;99.90;-2.40;99305;;;;550940;256;24169;-89
2023/12/02 03:25:43;;;;;;;18.33;8.63;;;-1.20;99.90;-2.40;99307;;;;551103;256;24163;-89
2023/12/02 03:28:16;;;;;;;26.30;10.60;;;;;-2.40;99304;;;;551712;256;24214;-90
2023/12/02 03:30:44;;;;;;;26.10;12.93;;;-1.20;99.90;-2.40;99307;;;;554894;256;35540;-89
2023/12/02 03:33:09;;;;;;;22.97;10.13;;;-1.20;99.90;-2.40;99308;;;;560847;256;24133;-88
2023/12/02 03:35:41;;;;;;;24.97;11.57;;;-1.30;99.90;-2.40;99316;;;;552482;255;24173;-89
2023/12/02 03:38:12;;;;;;;20.30;10.77;;;-1.20;99.90;-2.40;99325;;;;552490;256;24192;-88
2023/12/02 03:40:38;;;;;;;23.50;11.60;;;-1.20;99.90;-2.40;99324;;;;552427;256;24211;-88
2023/12/02 03:43:09;;;;;;;24.93;12.20;;;-1.30;99.90;-2.40;99322;;;;552356;256;24145;-88
2023/12/02 03:45:35;;;;;;;25.00;11.40;;;-1.30;99.90;-2.40;99307;;;;552258;255;24141;-88
2023/12/02 03:48:07;;;;;;;26.03;11.40;;;-1.30;99.90;-2.40;99322;;;;552487;256;24164;-88
2023/12/02 03:50:33;;;;;;;28.80;13.27;;;-1.30;99.90;-2.40;99306;;;;552578;256;24145;-87
2023/12/02 03:53:01;;;;;;;21.40;10.13;;;-1.30;99.90;-2.40;99308;;;;562338;252;24150;-87
2023/12/02 03:55:29;;;;;;;22.47;11.07;;;-1.40;99.90;-2.40;99307;;;;552294;256;24110;-86
2023/12/02 03:58:01;;;;;;;15.60;8.97;;;-1.30;99.90;-2.40;99305;;;;552257;254;24117;-89
2023/12/02 04:00:27;;;;;;;15.90;9.57;;;-1.30;99.90;-2.40;99314;;;;560988;255;24142;-90
2023/12/02 04:02:59;;;;;;;16.37;8.67;;;-1.30;99.90;-2.40;99308;;;;561763;252;24098;-87
2023/12/02 04:05:25;;;;;;;16.23;8.67;;;-1.30;99.90;-2.40;99320;;;;551950;256;24152;-90
2023/12/02 04:07:56;;;;;;;16.30;8.60;;;-1.30;99.90;-2.40;99309;;;;556693;254;24111;-89
2023/12/02 04:10:22;;;;;;;19.80;9.13;;;-1.30;99.90;-2.40;99295;;;;551487;255;24166;-90
2023/12/02 04:12:50;;;;;;;17.00;8.43;;;-1.40;99.90;-2.50;99297;;;;551162;256;24117;-88
2023/12/02 04:15:18;;;;;;;15.87;8.13;;;-1.40;99.90;-2.50;99312;;;;560023;256;24162;-88
2023/12/02 04:17:46;;;;;;;16.23;8.63;;;-1.50;99.90;-2.50;99310;;;;551729;256;24127;-88
2023/12/02 04:20:15;;;;;;;20.30;9.53;;;-1.50;99.90;-2.60;99313;;;;562137;252;24229;-88
2023/12/02 04:22:43;;;;;;;21.40;9.97;;;-1.40;99.90;-2.60;99310;;;;552200;256;24124;-88
2023/12/02 04:25:11;;;;;;;20.00;9.50;;;-1.40;99.90;-2.60;99316;;;;552897;256;24137;-88
2023/12/02 04:27:39;;;;;;;19.17;8.90;;;-1.30;99.90;-2.60;99304;;;;560723;256;24248;-88
2023/12/02 04:30:12;;;;;;;22.77;10.53;;;-1.50;99.90;-2.60;99312;;;;552506;256;24141;-89
2023/12/02 04:32:37;;;;;;;13.50;7.63;;;-1.50;99.90;-2.60;99307;;;;562838;249;24146;-90
2023/12/02 04:35:09;;;;;;;17.77;9.00;;;-1.50;99.90;-2.70;99317;;;;550162;258;24144;-89
2023/12/02 04:37:34;;;;;;;18.55;10.40;;;-1.50;99.90;-2.70;99317;;;;546544;256;35477;-89
2023/12/02 04:40:04;;;;;;;11.60;6.83;;;-1.50;99.90;-2.70;99324;;;;551845;256;24203;-89
2023/12/02 04:42:33;;;;;;;15.27;7.90;;;-1.40;99.90;-2.70;99320;;;;551285;256;24128;-90
2023/12/02 04:45:02;;;;;;;16.87;7.57;;;-1.60;99.90;-2.70;99319;;;;551090;256;24161;-89
2023/12/02 04:47:33;;;;;;;15.37;7.80;;;-1.50;99.90;-2.80;99325;;;;552575;256;24117;-89
2023/12/02 04:49:58;;;;;;;10.10;6.73;;;-1.60;99.90;-2.80;99323;;;;561940;249;24140;-90
2023/12/02 04:52:30;;;;;;;10.87;7.07;;;-1.80;99.90;-2.90;99329;;;;552257;254;24120;-88
2023/12/02 04:54:55;;;;;;;15.67;8.13;;;-1.80;99.90;-3.00;99311;;;;552375;256;24176;-88
2023/12/02 04:57:24;;;;;;;13.07;7.60;;;-1.80;99.90;-3.00;99307;;;;551587;256;24157;-88
2023/12/02 04:59:57;;;;;;;13.50;7.57;;;-1.90;99.90;-3.10;99307;;;;560497;256;24161;-89
2023/12/02 05:02:24;;;;;;;16.57;8.13;;;-1.90;99.90;-3.20;99310;;;;548354;256;24194;-88
2023/12/02 05:04:50;;;;;;;16.00;7.90;;;-2.00;99.90;-3.20;99305;;;;551825;256;24203;-88
2023/12/02 05:07:18;;;;;;;14.23;8.10;;;-2.10;99.90;-3.30;99311;;;;551983;256;24120;-88
2023/12/02 05:09:50;;;;;;;18.97;9.33;;;-2.10;99.90;-3.30;99322;;;;551900;256;24176;-88
2023/12/02 05:12:17;;;;;;;17.80;8.67;;;-2.30;99.90;-3.40;99320;;;;562044;251;24156;-88
2023/12/02 05:14:45;;;;;;;27.33;13.93;;;-2.10;99.90;-3.40;99325;;;;551602;256;24168;-88
2023/12/02 05:17:11;;;;;;;26.87;15.13;;;-2.20;99.90;-3.50;99325;;;;551961;256;24126;-89
2023/12/02 05:19:40;;;;;;;23.17;12.77;;;-2.40;99.90;-3.60;99329;;;;560244;249;24208;-89
2023/12/02 05:22:08;;;;;;;25.73;13.93;;;-2.50;99.90;-3.60;99321;;;;552055;256;24127;-88
2023/12/02 05:24:36;;;;;;;18.33;10.80;;;-2.40;99.90;-3.60;99323;;;;551825;256;24129;-89
2023/12/02 05:27:07;;;;;;;23.50;12.37;;;-2.40;99.90;-3.60;99324;;;;551887;256;24172;-87
2023/12/02 05:29:32;;;;;;;23.13;14.83;;;-2.50;99.90;-3.60;99319;;;;551641;256;24204;-88
2023/12/02 05:32:04;;;;;;;18.80;11.07;;;-2.50;99.90;-3.70;99310;;;;551873;256;24124;-88
2023/12/02 05:34:32;;;;;;;21.10;12.57;;;-2.50;99.90;-3.70;99308;;;;552167;254;24127;-87
2023/12/02 05:37:00;;;;;;;25.37;13.80;;;-2.50;99.90;-3.80;99313;;;;552011;255;24144;-88
2023/12/02 05:39:27;;;;;;;24.87;15.70;;;-2.60;99.90;-3.80;99321;;;;552195;256;24158;-88
2023/12/02 05:41:56;;;;;;;22.23;12.90;;;-2.70;99.90;-3.90;99324;;;;551586;256;24151;-88
2023/12/02 05:44:28;;;;;;;30.10;15.97;;;-2.70;99.90;-3.90;99321;;;;551288;256;25199;-88
2023/12/02 05:46:55;;;;;;;30.27;17.20;;;-2.60;99.90;-3.90;99327;;;;551811;256;24138;-89
2023/12/02 05:49:26;;;;;;;30.03;17.63;;;-2.70;99.90;-3.90;99319;;;;552276;254;24140;-88
2023/12/02 05:51:52;;;;;;;31.27;19.53;;;-2.70;99.90;-3.80;99320;;;;552146;256;24142;-88
2023/12/02 05:54:24;;;;;;;29.70;18.07;;;-2.60;99.90;-3.80;99324;;;;551843;256;24170;-89
2023/12/02 05:56:48;;;;;;;30.63;18.30;;;-2.70;99.90;-3.80;99329;;;;552027;256;24119;-89
2023/12/02 05:59:17;;;;;;;29.77;17.53;;;-2.30;99.90;-3.70;99326;;;;553205;256;24118;-88
2023/12/02 06:01:45;;;;;;;26.77;16.13;;;-2.50;99.90;-3.70;99321;;;;553216;256;24156;-87
2023/12/02 06:04:13;;;;;;;29.63;15.40;;;-2.50;99.90;-3.60;99333;;;;552621;256;24114;-88
2023/12/02 06:06:45;;;;;;;25.77;15.30;;;-2.40;99.90;-3.60;99336;;;;553289;256;24139;-87
2023/12/02 06:09:17;;;;;;;29.10;13.13;;;-2.30;99.90;-3.50;99332;;;;552576;256;24129;-86
2023/12/02 06:11:44;;;;;;;25.07;13.07;;;-2.30;99.90;-3.40;99327;;;;552852;256;24143;-87
2023/12/02 06:14:19;;;;;;;24.93;12.70;;;-2.20;99.90;-3.30;99327;;;;553105;256;24120;-88
2023/12/02 06:16:47;;;;;;;20.07;11.77;;;-2.20;99.90;-3.30;99334;;;;552500;256;24183;-87
2023/12/02 06:19:12;;;;;;;20.33;10.87;;;-2.00;99.90;-3.20;99333;;;;552038;256;24205;-88
2023/12/02 06:21:40;;;;;;;19.33;10.80;;;-2.10;99.90;-3.20;99337;;;;560296;256;24155;-89
2023/12/02 06:24:12;;;;;;;20.17;11.37;;;-1.90;99.90;-3.10;99341;;;;562116;252;24119;-89
2023/12/02 06:26:40;;;;;;;17.67;10.33;;;-1.80;99.90;-3.10;99328;;;;551593;256;25228;-88
2023/12/02 06:29:09;;;;;;;15.07;8.80;;;-2.00;99.90;-3.00;99340;;;;551587;256;24174;-88
2023/12/02 06:31:34;;;;;;;26.83;11.50;;;-1.80;99.90;-3.00;99333;;;;551615;256;24131;-87
2023/12/02 06:34:06;;;;;;;14.50;8.80;;;-1.60;99.90;-2.90;99334;;;;552265;256;24189;-89
2023/12/02 06:36:36;;;;;;;18.10;9.87;;;-1.70;99.90;-2.90;99339;;;;552152;254;24129;-91
2023/12/02 06:39:05;;;;;;;20.03;10.37;;;-1.70;99.90;-2.80;99333;;;;561677;249;24147;-88
2023/12/02 06:41:28;;;;;;;20.27;11.43;;;-1.60;99.90;-2.80;99337;;;;551593;256;25203;-89
2023/12/02 06:43:57;;;;;;;20.87;11.27;;;-1.60;99.90;-2.70;99334;;;;560131;255;24202;-88
2023/12/02 06:46:25;;;;;;;18.23;9.90;;;-1.50;99.90;-2.70;99334;;;;552060;256;24183;-88
2023/12/02 06:48:56;;;;;;;17.97;9.87;;;-1.50;99.90;-2.60;99340;;;;561420;252;24091;-90
2023/12/02 06:51:28;;;;;;;22.50;10.67;;;-1.40;99.90;-2.60;99335;;;;559827;249;24155;-91
2023/12/02 06:53:53;;;;;;;13.90;9.10;;;-1.40;99.90;-2.50;99339;;;;551616;256;24116;-88
2023/12/02 06:56:22;;;;;;;20.00;10.17;;;-1.20;99.90;-2.50;99342;;;;551875;256;24125;-89
2023/12/02 06:58:50;;;;;;;18.77;9.50;;;-1.30;99.90;-2.50;99344;;;;552232;256;24184;-91
2023/12/02 07:01:28;;;;;;;22.40;11.43;;;-1.30;99.90;-2.40;99357;;;;559855;250;24130;-89
2023/12/02 07:03:56;;;;;;;15.87;9.50;;;-1.20;99.90;-2.30;99372;;;;560915;249;24135;-88
2023/12/02 07:06:29;;;;;;;15.70;9.20;;;-1.10;99.90;-2.30;99378;;;;561998;252;24143;-89
2023/12/02 07:08:56;;;;;;;16.73;11.07;;;-1.10;99.90;-2.30;99365;;;;552636;256;24108;-91
2023/12/02 07:11:24;;;;;;;19.13;11.80;;;-1.10;99.90;-2.20;99368;;;;553697;254;24172;-89
2023/12/02 07:13:53;;;;;;;20.00;11.80;;;-1.00;99.90;-2.20;99361;;;;553035;255;24194;-90
2023/12/02 07:16:21;;;;;;;21.03;13.20;;;-1.00;99.90;-2.10;99370;;;;552343;254;24141;-89
2023/12/02 07:18:46;;;;;;;26.03;15.20;;;-1.00;99.90;-2.10;99377;;;;552017;256;24176;-90
2023/12/02 07:21:16;;;;;;;28.37;15.90;;;-0.90;99.90;-2.00;99387;;;;562078;251;24103;-88
2023/12/02 07:23:46;;;;;;;21.93;13.80;;;-0.90;99.90;-2.00;99386;;;;551989;256;24165;-89
2023/12/02 07:26:13;;;;;;;20.53;13.37;;;-0.80;99.90;-1.90;99393;;;;551732;256;24180;-90
2023/12/02 07:28:37;;;;;;;20.00;12.00;;;-0.70;99.90;-1.90;99393;;;;559982;250;24217;-88
2023/12/02 07:31:10;;;;;;;20.63;12.63;;;-0.70;99.90;-1.80;99375;;;;551893;256;24152;-90
2023/12/02 07:33:38;;;;;;;22.90;13.43;;;-0.60;99.90;-1.80;99369;;;;551711;254;24140;-88
2023/12/02 07:36:15;;;;;;;17.37;10.87;;;-0.80;99.90;-1.70;99385;;;;552659;256;24094;-87
2023/12/02 07:38:43;;;;;;;15.67;10.57;;;-0.30;99.90;-1.70;99389;;;;561323;252;24103;-87
2023/12/02 07:41:11;;;;;;;16.57;10.23;;;-0.60;99.90;-1.60;99387;;;;552187;256;24129;-87
2023/12/02 07:43:37;;;;;;;21.40;11.63;;;-0.30;99.90;-1.50;99392;;;;550788;256;24141;-88
2023/12/02 07:46:05;;;;;;;19.37;11.30;;;-0.30;99.90;-1.40;99392;;;;555193;257;24161;-88
2023/12/02 07:48:33;;;;;;;15.03;10.07;;;-0.20;99.90;-1.30;99386;;;;561591;250;24095;-87
2023/12/02 07:51:08;;;;;;;17.33;10.30;;;-0.10;99.90;-1.30;99398;;;;551806;256;24130;-87
2023/12/02 07:53:33;;;;;;;27.37;13.53;;;-0.10;99.90;-1.20;99406;;;;551494;256;24169;-87
2023/12/02 07:56:05;;;;;;;19.93;12.43;;;0.00;99.90;-1.10;99401;;;;551805;256;24181;-88
2023/12/02 07:58:31;;;;;;;17.33;10.70;;;0.00;99.90;-1.00;99404;;;;551506;256;24153;-91
2023/12/02 08:00:59;;;;;;;19.63;10.47;;;0.20;99.90;-0.90;99400;;;;560526;256;24147;-89
2023/12/02 08:03:24;;;;;;;26.57;12.93;;;0.40;99.90;-0.80;99388;;;;560934;252;24129;-88
2023/12/02 08:05:53;;;;;;;16.00;7.50;;;0.40;99.90;-0.70;99394;;;;561590;252;24098;-89
2023/12/02 08:08:24;;;;;;;23.50;8.50;;;0.60;99.90;-0.60;99392;;;;551696;256;24231;-90
2023/12/02 08:10:54;;;;;;;20.07;9.17;;;0.60;99.90;-0.50;99398;;;;547227;256;24143;-89
2023/12/02 08:13:21;;;;;;;14.37;6.83;;;0.60;99.90;-0.50;99402;;;;547260;256;24275;-88
2023/12/02 08:15:49;;;;;;;10.47;6.10;;;0.70;99.90;-0.40;99408;;;;547160;256;24174;-88
2023/12/02 08:18:18;;;;;;;12.47;5.53;;;0.80;99.90;-0.40;99418;;;;551638;256;24168;-89
2023/12/02 08:20:47;;;;;;;11.87;5.13;;;0.90;99.90;-0.30;99413;;;;552075;255;24143;-89
2023/12/02 08:23:16;;;;;;;15.23;7.60;;;0.90;99.90;-0.30;99423;;;;553324;254;24127;-88
2023/12/02 08:25:44;;;;;;;17.00;8.10;;;0.90;99.90;-0.30;99427;;;;561971;255;24126;-88
2023/12/02 08:28:09;;;;;;;13.60;6.83;;;1.00;99.90;-0.20;99427;;;;558896;254;24143;-89
2023/12/02 08:30:44;;;;;;;12.53;6.67;;;1.00;99.90;-0.10;99422;;;;558542;251;25168;-88
2023/12/02 08:33:11;;;;;;;14.23;6.93;;;1.10;99.90;-0.10;99418;;;;551936;256;25198;-88
2023/12/02 08:35:40;;;;;;;13.80;6.40;;;1.10;99.90;-0.10;99428;;;;547757;256;24138;-89
2023/12/02 08:38:10;;;;;;;9.27;5.40;;;1.10;99.90;0.00;99432;;;;547624;256;24198;-89
2023/12/02 08:40:38;;;;;;;14.83;6.53;;;1.10;99.90;0.00;99434;;;;558027;257;24131;-90
2023/12/02 08:43:03;;;;;;;13.43;6.07;;;1.30;99.90;0.10;99435;;;;561275;251;24172;-89
2023/12/02 08:45:33;;;;;;;8.43;5.27;;;1.30;99.90;0.20;99439;;;;551825;256;24154;-89
2023/12/02 08:48:05;;;;;;;16.83;6.87;;;1.40;99.90;0.20;99439;;;;551576;256;24203;-89
2023/12/02 08:50:34;;;;;;;13.80;6.87;;;1.50;99.90;0.30;99448;;;;552070;256;24180;-89
2023/12/02 08:53:06;;;;;;;14.13;5.53;;;1.60;99.90;0.50;99452;;;;560260;256;24156;-90
2023/12/02 08:55:40;;;;;;;11.67;6.17;;;1.80;99.90;0.70;99447;;;;551991;256;24133;-89
2023/12/02 08:58:06;;;;;;;9.67;5.03;;;2.00;99.90;0.90;99454;;;;551577;256;24137;-89
2023/12/02 09:00:47;;;;;;;;;;;;;;;;;;;;;
2023/12/02 09:03:08;;;;;;;9.83;5.70;;;2.20;99.90;1.10;99448;;;;551198;254;24141;-90
2023/12/02 09:05:37;;;;;;;14.97;5.63;;;2.30;99.90;1.10;99456;;;;547103;256;25191;-88
2023/12/02 09:08:06;;;;;;;9.83;4.60;;;2.30;99.90;1.10;99457;;;;549314;255;24208;-87
2023/12/02 09:10:33;;;;;;;8.47;3.90;;;2.30;99.90;1.10;99447;;;;551885;252;24183;-89
2023/12/02 09:12:58;;;;;;;8.07;5.17;;;2.20;99.90;1.10;99441;;;;551823;256;24148;-88
2023/12/02 09:15:41;;;;;;;5.60;4.53;;;2.20;99.90;1.00;99438;;;;551988;256;24167;-89
2023/12/02 09:18:13;;;;;;;12.37;7.73;;;2.20;99.90;1.10;99441;;;;551831;256;24375;-88
2023/12/02 09:20:43;;;;;;;14.83;8.03;;;2.20;99.90;1.10;99443;;;;569358;245;24093;-88
2023/12/02 09:23:12;;;;;;;11.80;6.67;;;2.30;99.90;1.10;99444;;;;560016;256;25230;-91
2023/12/02 09:25:40;;;;;;;12.83;6.20;;;2.30;99.90;1.20;99446;;;;551958;256;24178;-90
2023/12/02 09:28:09;;;;;;;9.37;6.13;;;2.40;99.90;1.20;99455;;;;559980;256;24148;-90
2023/12/02 09:30:42;;;;;;;17.80;5.80;;;2.40;99.90;1.30;99452;;;;551829;254;24198;-88
2023/12/02 09:33:10;;;;;;;16.10;6.27;;;2.60;99.90;1.60;99452;;;;555588;253;24235;-87
2023/12/02 09:35:38;;;;;;;9.47;5.10;;;2.80;99.90;1.70;99461;;;;550815;256;24196;-87
2023/12/02 09:38:06;;;;;;;8.33;5.03;;;2.90;99.90;1.80;99445;;;;553181;256;24145;-88
2023/12/02 09:40:43;;;;;;;15.73;6.80;;;3.00;99.90;1.90;99452;;;;552887;256;24138;-88
2023/12/02 09:43:54;;;;;;;12.03;6.87;;;3.10;99.90;2.10;99449;;;;563310;251;24094;-87
2023/12/02 09:46:27;;;;;;;7.90;5.73;;;3.30;99.90;2.30;99457;;;;553452;256;24143;-87
2023/12/02 09:49:19;;;;;;;9.93;4.70;;;3.50;99.90;2.40;99452;;;;559425;256;24227;-89
2023/12/02 09:52:09;;;;;;;7.13;4.23;;;3.60;99.90;2.60;99456;;;;562081;252;24150;-88
2023/12/02 09:54:45;;;;;;;14.17;7.17;;;3.70;99.90;2.70;99460;;;;552420;256;24130;-88
2023/12/02 09:57:33;;;;;;;11.63;6.57;;;3.80;99.90;2.70;99472;;;;552601;256;24133;-88
2023/12/02 10:00:02;;;;;;;14.73;6.20;;;3.80;99.90;2.80;99464;;;;550700;258;24135;-87
2023/12/02 10:02:51;;;;;;;15.50;7.23;;;3.90;99.90;2.90;99469;;;;562229;250;24134;-87
2023/12/02 10:05:19;;;;;;;14.03;7.70;;;4.00;99.90;3.00;99467;;;;552552;254;24150;-88
2023/12/02 10:08:04;;;;;;;9.70;6.10;;;4.00;99.90;3.00;99459;;;;551548;255;24134;-88
2023/12/02 10:10:44;;;;;;;13.07;8.13;;;3.90;99.90;2.90;99461;;;;550597;256;24138;-88
2023/12/02 10:13:55;;;;;;;12.77;6.87;;;3.90;99.90;2.80;99464;;;;559306;256;24137;-88
2023/12/02 10:16:23;;;;;;;13.50;6.10;;;3.90;99.90;2.80;99456;;;;552063;256;25197;-88
2023/12/02 10:18:54;;;;;;;8.37;5.33;;;3.90;99.90;2.80;99450;;;;560192;254;24211;-88
2023/12/02 10:21:22;;;;;;;11.77;6.53;;;3.90;99.90;2.80;99437;;;;550228;258;24145;-88
2023/12/02 10:23:57;;;;;;;19.57;8.23;;;3.80;99.90;2.80;99443;;;;561477;249;24142;-87
2023/12/02 10:26:32;;;;;;;10.00;6.33;;;3.70;99.90;2.70;99443;;;;549437;258;24188;-86
2023/12/02 10:29:09;;;;;;;11.87;6.73;;;3.70;99.90;2.60;99443;;;;548144;258;25206;-86
2023/12/02 10:31:37;;;;;;;16.03;6.27;;;3.70;99.90;2.70;99437;;;;560741;250;24104;-87
2023/12/02 10:34:08;;;;;;;5.80;4.27;;;3.60;99.90;2.70;99444;;;;559472;255;24150;-85
2023/12/02 10:36:39;;;;;;;10.77;7.07;;;3.70;99.90;2.70;99436;;;;560213;252;24180;-88
2023/12/02 10:39:10;;;;;;;15.40;9.00;;;3.80;99.90;2.70;99440;;;;550832;256;24157;-87
2023/12/02 10:41:53;;;;;;;16.43;8.77;;;3.80;99.90;2.70;99441;;;;552216;256;24127;-89
2023/12/02 10:44:25;;;;;;;16.30;8.07;;;3.80;99.90;2.70;99437;;;;545877;254;24148;-87
2023/12/02 10:47:00;;;;;;;28.33;12.40;;;3.70;99.90;2.60;99438;;;;563381;251;24113;-87
2023/12/02 10:49:18;;;;;;;34.13;13.50;;;3.60;99.90;2.60;99430;;;;552728;254;24147;-86
2023/12/02 10:51:46;;;;;;;33.27;14.77;;;3.60;99.90;2.50;99427;;;;552680;255;24180;-84
2023/12/02 10:54:16;;;;;;;25.33;12.57;;;3.60;99.90;2.50;99433;;;;562191;249;24123;-86
2023/12/02 10:56:43;;;;;;;20.47;9.37;;;3.50;99.90;2.50;99421;;;;552440;256;24187;-87
2023/12/02 10:59:15;;;;;;;20.60;9.27;;;3.50;99.90;2.40;99426;;;;552286;256;24176;-88
2023/12/02 11:01:54;;;;;;;17.03;7.53;;;3.40;99.90;2.40;99422;;;;562121;249;24141;-87
2023/12/02 11:04:37;;;;;;;16.80;7.57;;;3.40;99.90;2.40;99431;;;;547013;258;24153;-88
2023/12/02 11:07:05;;;;;;;12.17;7.53;;;3.40;99.90;2.40;99423;;;;550324;256;24123;-87
2023/12/02 11:09:51;;;;;;;17.63;8.60;;;3.50;99.90;2.50;99432;;;;551799;256;24227;-87
2023/12/02 11:12:23;;;;;;;15.57;7.73;;;3.60;99.90;2.60;99428;;;;561356;252;24106;-89
2023/12/02 11:14:51;;;;;;;18.63;7.87;;;3.80;99.90;2.80;99430;;;;559581;255;24196;-88
2023/12/02 11:17:47;;;;;;;13.53;6.47;;;3.80;99.90;2.80;99429;;;;560162;250;25161;-87
2023/12/02 11:20:22;;;;;;;21.97;7.80;;;3.80;99.90;2.80;99436;;;;552173;256;24223;-87
2023/12/02 11:22:59;;;;;;;17.23;8.60;;;3.80;99.90;2.80;99432;;;;560220;251;24139;-87